BFIBOEING FLD/KING COUNTY INTL
METARs for airports near BFI, sorted by distance:
N 0 nm 21' KBFI 152253Z 31008KT 10SM CLR 22/01 A3007
SE 4 nm 32' KRNT 152253Z 33013KT 10SM CLR 22/02 A3006
S 4 nm 432' KSEA 152253Z 35014KT 10SM CLR 24/00 A3008
W 18 nm 444' KPWT 152256Z 04011KT 10SM CLR 23/01 A3009
SW 19 nm 294' KTIW 152253Z 03011KT 10SM CLR 22/M01 A3007
N 22 nm 607' KPAE 152253Z 35008KT 10SM CLR 20/04 A3011
S 24 nm 322' KTCM 152258Z 36013KT 10SM CLR 23/01 A3007
S 25 nm 537' KPLU 152255Z 32008G13KT 280V360 10SM CLR 23/M01 A3007
S 29 nm 301' KGRF 152258Z 32010KT 10SM CLR 24/M01 A3006
N 38 nm 141' KAWO 152256Z 31011KT 10SM CLR 22/07 A3010
SW 38 nm 272' KSHN 152253Z VRB06KT 10SM CLR 24/01 A3005
SW 41 nm 207' KOLM 152254Z 02007KT 10SM CLR 24/M01 A3007
N 51 nm 47' KNUW 152256Z 28005KT 10SM CLR 14/05 A3015
N 56 nm 145' KBVS 152255Z 31010KT 8SM CLR 20/05 A3011
NW 57 nm 13' KNOW 152255Z 10004KT 10SM CLR 15/05 A3013
SW 58 nm 177' KCLS 152255Z 00000KT 10SM CLR 23/01 A3007
NW 59 nm 291' KCLM 152253Z VRB05KT 10SM CLR 19/M02 A3013
NW 66 nm 112' KFHR 152253Z 12003KT 10SM CLR 19/04 A3013
SW 74 nm 17' KHQM 152253Z 29011KT 10SM CLR 21/05 A3006
N 74 nm 34' KORS 152255Z 32004KT 10SM CLR 15/04 A3012
N 76 nm 171' KBLI 152253Z 30005KT 10SM CLR 20/02 A3011
E 78 nm 1763' KELN 152253Z 06014KT 10SM CLR 23/M06 A3010
NW 80 nm 64' CYYJ 152300Z 09005KT 050V150 30SM SKC 20/03 A3011
E 85 nm 1248' KEAT 152255Z 17006KT 10SM CLR 22/M04 A3008
S 88 nm 20' KKLS 152256Z 30005G17KT 10SM CLR 25/02 A3004
SE 92 nm 1098' KYKM 152253Z 05013G20KT 10SM CLR 23/M03 A3008
W 94 nm 193' KUIL 152253Z VRB05KT 10SM CLR 21/M02 A3010
TAFs for airports near BFI, sorted by distance:
N 0 nm 21' KBFI TAF KBFI 151731Z 1518/1618 32006KT P6SM SKC
  FM160600 00000KT P6SM SKC
S 4 nm 432' KSEA KSEA 152101Z 1521/1624 35009KT P6SM SKC
  FM160600 02005KT P6SM SKC
W 18 nm 444' KPWT TAF KPWT 151731Z 1518/1618 05011KT P6SM SKC
  FM160600 06003KT P6SM SKC
N 22 nm 607' KPAE TAF KPAE 151731Z 1518/1618 33006KT P6SM SKC
  FM160300 VRB03KT P6SM SKC
S 24 nm 322' KTCM TAF KTCM 152105Z 1521/1703 35012KT 9999 SKC QNH3008INS
  BECMG 1603/1604 VRB04KT 9999 SKC QNH3010INS
  BECMG 1620/1621 05009KT 9999 SKC QNH3020INS TX24/1600Z TN05/1614Z
S 29 nm 301' KGRF TAF KGRF 152057Z 1521/1703 33010G15KT 9999 SKC QNH3006INS
  BECMG 1603/1604 02008KT 9999 SKC QNH3010INS
  BECMG 1618/1619 35010G15KT 9999 SKC QNH3010INS TX23/1600Z TN08/1614Z
SW 41 nm 207' KOLM TAF KOLM 151731Z 1518/1618 05006KT P6SM SKC
  FM160300 VRB03KT P6SM SKC
N 51 nm 47' KNUW TAF TAF KNUW 1523/1623 VRB06KT 9999 SKC QNH3012INS
  TEMPO 1610/1615 11006KT 9999 BCFG FEW001
  FM161900 29007KT 9999 FEW250 QNH3022INS T16/1523Z T04/1613Z FS30046
NW 59 nm 291' KCLM TAF KCLM 151731Z 1518/1618 07006KT P6SM SKC
  FM160300 28004KT P6SM SKC
SW 74 nm 17' KHQM TAF KHQM 151731Z 1518/1618 03005KT P6SM SKC
  FM152300 26007KT P6SM SKC
  FM161000 VRB02KT P6SM SKC
N 76 nm 171' KBLI TAF KBLI 151731Z 1518/1618 VRB03KT P6SM SKC
  FM152100 29007KT P6SM SKC
  FM160400 17004KT P6SM SKC
  FM161600 06003KT P6SM SKC
E 85 nm 1248' KEAT KEAT 151734Z 1518/1618 26006KT P6SM SKC
  FM152000 17006KT P6SM SKC
  FM160200 VRB03KT P6SM SKC
  FM161200 30006KT P6SM SKC
SE 92 nm 1098' KYKM TAF KYKM 151720Z 1518/1618 05013G20KT P6SM FEW250
  FM160300 28007KT P6SM SKC
  FM161600 02010KT P6SM SKC

Shortcut to this page: http://wxbay.com.

Data may contain errors.